sensor_id;sensor_type;location;lat;lon;timestamp;temperature;humidity
51661;DHT22;37741;49.748;8.490;2023-08-17T00:00:07;23.20;77.00
51661;DHT22;37741;49.748;8.490;2023-08-17T00:02:38;23.20;77.20
51661;DHT22;37741;49.748;8.490;2023-08-17T00:05:04;23.20;77.20
51661;DHT22;37741;49.748;8.490;2023-08-17T00:07:32;23.10;77.30
51661;DHT22;37741;49.748;8.490;2023-08-17T00:09:57;23.10;77.50
51661;DHT22;37741;49.748;8.490;2023-08-17T00:12:24;23.00;77.50
51661;DHT22;37741;49.748;8.490;2023-08-17T00:14:50;23.00;77.50
51661;DHT22;37741;49.748;8.490;2023-08-17T00:17:16;22.90;77.60
51661;DHT22;37741;49.748;8.490;2023-08-17T00:19:42;22.90;77.60
51661;DHT22;37741;49.748;8.490;2023-08-17T00:22:07;22.90;77.70
51661;DHT22;37741;49.748;8.490;2023-08-17T00:24:33;22.90;77.80
51661;DHT22;37741;49.748;8.490;2023-08-17T00:26:59;22.80;77.80
51661;DHT22;37741;49.748;8.490;2023-08-17T00:29:24;22.80;78.00
51661;DHT22;37741;49.748;8.490;2023-08-17T00:31:50;22.80;78.00
51661;DHT22;37741;49.748;8.490;2023-08-17T00:34:16;22.80;78.00
51661;DHT22;37741;49.748;8.490;2023-08-17T00:36:42;22.70;77.90
51661;DHT22;37741;49.748;8.490;2023-08-17T00:39:07;22.70;78.00
51661;DHT22;37741;49.748;8.490;2023-08-17T00:41:33;22.70;78.10
51661;DHT22;37741;49.748;8.490;2023-08-17T00:43:59;22.60;78.20
51661;DHT22;37741;49.748;8.490;2023-08-17T00:46:25;22.60;78.30
51661;DHT22;37741;49.748;8.490;2023-08-17T00:48:52;22.60;78.40
51661;DHT22;37741;49.748;8.490;2023-08-17T00:51:21;22.50;78.50
51661;DHT22;37741;49.748;8.490;2023-08-17T00:53:47;22.50;78.50
51661;DHT22;37741;49.748;8.490;2023-08-17T00:56:13;22.50;78.50
51661;DHT22;37741;49.748;8.490;2023-08-17T00:58:39;22.50;78.60
51661;DHT22;37741;49.748;8.490;2023-08-17T01:01:04;22.50;78.60
51661;DHT22;37741;49.748;8.490;2023-08-17T01:03:31;22.50;78.50
51661;DHT22;37741;49.748;8.490;2023-08-17T01:05:57;22.40;78.60
51661;DHT22;37741;49.748;8.490;2023-08-17T01:08:24;22.40;78.70
51661;DHT22;37741;49.748;8.490;2023-08-17T01:13:35;22.40;78.80
51661;DHT22;37741;49.748;8.490;2023-08-17T01:16:05;22.40;78.80
51661;DHT22;37741;49.748;8.490;2023-08-17T01:18:34;22.30;78.70
51661;DHT22;37741;49.748;8.490;2023-08-17T01:21:02;22.30;78.80
51661;DHT22;37741;49.748;8.490;2023-08-17T01:23:29;22.20;78.80
51661;DHT22;37741;49.748;8.490;2023-08-17T01:25:55;22.20;78.90
51661;DHT22;37741;49.748;8.490;2023-08-17T01:28:22;22.20;79.20
51661;DHT22;37741;49.748;8.490;2023-08-17T01:31:19;22.20;79.20
51661;DHT22;37741;49.748;8.490;2023-08-17T01:33:59;22.20;79.30
51661;DHT22;37741;49.748;8.490;2023-08-17T01:36:36;22.20;79.30
51661;DHT22;37741;49.748;8.490;2023-08-17T01:39:03;22.20;79.30
51661;DHT22;37741;49.748;8.490;2023-08-17T01:41:30;22.20;79.20
51661;DHT22;37741;49.748;8.490;2023-08-17T01:43:58;22.20;79.20
51661;DHT22;37741;49.748;8.490;2023-08-17T01:46:30;22.20;79.10
51661;DHT22;37741;49.748;8.490;2023-08-17T01:48:57;22.20;79.00
51661;DHT22;37741;49.748;8.490;2023-08-17T01:51:23;22.20;79.10
51661;DHT22;37741;49.748;8.490;2023-08-17T01:53:49;22.20;79.10
51661;DHT22;37741;49.748;8.490;2023-08-17T01:56:15;22.20;79.10
51661;DHT22;37741;49.748;8.490;2023-08-17T01:58:40;22.20;79.10
51661;DHT22;37741;49.748;8.490;2023-08-17T02:01:06;22.20;79.10
51661;DHT22;37741;49.748;8.490;2023-08-17T02:03:32;22.20;79.10
51661;DHT22;37741;49.748;8.490;2023-08-17T02:05:58;22.20;79.10
51661;DHT22;37741;49.748;8.490;2023-08-17T02:08:24;22.10;79.10
51661;DHT22;37741;49.748;8.490;2023-08-17T02:10:50;22.10;79.10
51661;DHT22;37741;49.748;8.490;2023-08-17T02:13:16;22.10;79.10
51661;DHT22;37741;49.748;8.490;2023-08-17T02:15:41;22.10;79.20
51661;DHT22;37741;49.748;8.490;2023-08-17T02:18:07;22.10;79.30
51661;DHT22;37741;49.748;8.490;2023-08-17T02:20:33;22.10;79.30
51661;DHT22;37741;49.748;8.490;2023-08-17T02:22:59;22.10;79.40
51661;DHT22;37741;49.748;8.490;2023-08-17T02:25:25;22.00;79.40
51661;DHT22;37741;49.748;8.490;2023-08-17T02:27:50;22.00;79.40
51661;DHT22;37741;49.748;8.490;2023-08-17T02:30:16;22.00;79.50
51661;DHT22;37741;49.748;8.490;2023-08-17T02:32:41;22.00;79.50
51661;DHT22;37741;49.748;8.490;2023-08-17T02:35:07;22.00;79.40
51661;DHT22;37741;49.748;8.490;2023-08-17T02:37:33;21.90;79.40
51661;DHT22;37741;49.748;8.490;2023-08-17T02:39:59;21.90;79.50
51661;DHT22;37741;49.748;8.490;2023-08-17T02:42:24;21.80;79.90
51661;DHT22;37741;49.748;8.490;2023-08-17T02:44:50;21.80;79.80
51661;DHT22;37741;49.748;8.490;2023-08-17T02:47:16;21.80;80.00
51661;DHT22;37741;49.748;8.490;2023-08-17T02:49:41;21.70;80.00
51661;DHT22;37741;49.748;8.490;2023-08-17T02:52:07;21.70;80.10
51661;DHT22;37741;49.748;8.490;2023-08-17T02:54:32;21.70;80.20
51661;DHT22;37741;49.748;8.490;2023-08-17T02:56:59;21.60;80.20
51661;DHT22;37741;49.748;8.490;2023-08-17T02:59:25;21.60;80.50
51661;DHT22;37741;49.748;8.490;2023-08-17T03:01:50;21.60;80.50
51661;DHT22;37741;49.748;8.490;2023-08-17T03:04:16;21.60;80.60
51661;DHT22;37741;49.748;8.490;2023-08-17T03:06:42;21.50;80.60
51661;DHT22;37741;49.748;8.490;2023-08-17T03:09:07;21.50;80.80
51661;DHT22;37741;49.748;8.490;2023-08-17T03:11:33;21.50;80.80
51661;DHT22;37741;49.748;8.490;2023-08-17T03:13:59;21.40;80.90
51661;DHT22;37741;49.748;8.490;2023-08-17T03:16:28;21.40;80.90
51661;DHT22;37741;49.748;8.490;2023-08-17T03:18:55;21.40;80.90
51661;DHT22;37741;49.748;8.490;2023-08-17T03:21:21;21.40;81.00
51661;DHT22;37741;49.748;8.490;2023-08-17T03:23:48;21.40;81.00
51661;DHT22;37741;49.748;8.490;2023-08-17T03:26:14;21.40;81.60
51661;DHT22;37741;49.748;8.490;2023-08-17T03:28:40;21.30;81.20
51661;DHT22;37741;49.748;8.490;2023-08-17T03:31:09;21.30;81.10
51661;DHT22;37741;49.748;8.490;2023-08-17T03:33:35;21.30;81.20
51661;DHT22;37741;49.748;8.490;2023-08-17T03:36:02;21.30;81.30
51661;DHT22;37741;49.748;8.490;2023-08-17T03:38:28;21.30;81.30
51661;DHT22;37741;49.748;8.490;2023-08-17T03:40:54;21.30;81.40
51661;DHT22;37741;49.748;8.490;2023-08-17T03:43:19;21.30;81.40
51661;DHT22;37741;49.748;8.490;2023-08-17T03:45:45;21.30;81.40
51661;DHT22;37741;49.748;8.490;2023-08-17T03:48:11;21.30;81.60
51661;DHT22;37741;49.748;8.490;2023-08-17T03:50:37;21.30;81.50
51661;DHT22;37741;49.748;8.490;2023-08-17T03:53:03;21.30;81.60
51661;DHT22;37741;49.748;8.490;2023-08-17T03:55:31;21.20;81.50
51661;DHT22;37741;49.748;8.490;2023-08-17T03:57:57;21.20;81.50
51661;DHT22;37741;49.748;8.490;2023-08-17T04:00:22;21.20;81.60
51661;DHT22;37741;49.748;8.490;2023-08-17T04:02:49;21.20;81.60
51661;DHT22;37741;49.748;8.490;2023-08-17T04:05:14;21.20;81.60
51661;DHT22;37741;49.748;8.490;2023-08-17T04:07:40;21.20;81.70
51661;DHT22;37741;49.748;8.490;2023-08-17T04:10:06;21.20;81.70
51661;DHT22;37741;49.748;8.490;2023-08-17T04:12:32;21.10;81.70
51661;DHT22;37741;49.748;8.490;2023-08-17T04:14:58;21.20;81.80
51661;DHT22;37741;49.748;8.490;2023-08-17T04:17:24;21.10;81.80
51661;DHT22;37741;49.748;8.490;2023-08-17T04:19:50;21.10;81.80
51661;DHT22;37741;49.748;8.490;2023-08-17T04:22:16;21.10;82.50
51661;DHT22;37741;49.748;8.490;2023-08-17T04:24:41;21.10;81.90
51661;DHT22;37741;49.748;8.490;2023-08-17T04:27:07;21.10;81.90
51661;DHT22;37741;49.748;8.490;2023-08-17T04:29:33;21.10;81.90
51661;DHT22;37741;49.748;8.490;2023-08-17T04:31:58;21.10;81.90
51661;DHT22;37741;49.748;8.490;2023-08-17T04:34:24;21.10;82.00
51661;DHT22;37741;49.748;8.490;2023-08-17T04:36:50;21.10;82.10
51661;DHT22;37741;49.748;8.490;2023-08-17T04:39:16;21.10;81.90
51661;DHT22;37741;49.748;8.490;2023-08-17T04:41:41;21.10;81.80
51661;DHT22;37741;49.748;8.490;2023-08-17T04:44:07;21.10;81.80
51661;DHT22;37741;49.748;8.490;2023-08-17T04:46:33;21.20;82.40
51661;DHT22;37741;49.748;8.490;2023-08-17T04:48:58;21.10;81.80
51661;DHT22;37741;49.748;8.490;2023-08-17T04:51:24;21.10;81.70
51661;DHT22;37741;49.748;8.490;2023-08-17T04:53:50;21.20;81.70
51661;DHT22;37741;49.748;8.490;2023-08-17T04:56:15;21.20;81.80
51661;DHT22;37741;49.748;8.490;2023-08-17T04:58:41;21.20;81.70
51661;DHT22;37741;49.748;8.490;2023-08-17T05:01:06;21.20;81.70
51661;DHT22;37741;49.748;8.490;2023-08-17T05:03:32;21.20;81.70
51661;DHT22;37741;49.748;8.490;2023-08-17T05:05:57;21.20;81.70
51661;DHT22;37741;49.748;8.490;2023-08-17T05:08:23;21.20;81.70
51661;DHT22;37741;49.748;8.490;2023-08-17T05:10:49;21.20;81.70
51661;DHT22;37741;49.748;8.490;2023-08-17T05:13:14;21.20;81.70
51661;DHT22;37741;49.748;8.490;2023-08-17T05:15:40;21.20;81.80
51661;DHT22;37741;49.748;8.490;2023-08-17T05:18:06;21.20;81.80
51661;DHT22;37741;49.748;8.490;2023-08-17T05:20:34;21.10;81.80
51661;DHT22;37741;49.748;8.490;2023-08-17T05:22:59;21.10;81.80
51661;DHT22;37741;49.748;8.490;2023-08-17T05:25:25;21.10;81.80
51661;DHT22;37741;49.748;8.490;2023-08-17T05:27:51;21.10;82.00
51661;DHT22;37741;49.748;8.490;2023-08-17T05:30:17;21.10;81.90
51661;DHT22;37741;49.748;8.490;2023-08-17T05:32:43;21.10;82.00
51661;DHT22;37741;49.748;8.490;2023-08-17T05:35:09;21.10;82.00
51661;DHT22;37741;49.748;8.490;2023-08-17T05:37:34;21.10;82.00
51661;DHT22;37741;49.748;8.490;2023-08-17T05:40:00;21.10;82.10
51661;DHT22;37741;49.748;8.490;2023-08-17T05:42:26;21.10;82.20
51661;DHT22;37741;49.748;8.490;2023-08-17T05:44:51;21.10;82.30
51661;DHT22;37741;49.748;8.490;2023-08-17T05:47:17;21.00;82.50
51661;DHT22;37741;49.748;8.490;2023-08-17T05:49:44;21.00;82.60
51661;DHT22;37741;49.748;8.490;2023-08-17T05:52:10;21.00;82.70
51661;DHT22;37741;49.748;8.490;2023-08-17T05:54:36;21.00;82.80
51661;DHT22;37741;49.748;8.490;2023-08-17T05:57:03;20.90;82.90
51661;DHT22;37741;49.748;8.490;2023-08-17T05:59:29;20.90;82.90
51661;DHT22;37741;49.748;8.490;2023-08-17T06:01:55;20.90;83.00
51661;DHT22;37741;49.748;8.490;2023-08-17T06:04:20;20.90;83.20
51661;DHT22;37741;49.748;8.490;2023-08-17T06:06:46;20.90;83.30
51661;DHT22;37741;49.748;8.490;2023-08-17T06:09:12;20.90;83.10
51661;DHT22;37741;49.748;8.490;2023-08-17T06:11:37;20.90;83.20
51661;DHT22;37741;49.748;8.490;2023-08-17T06:14:04;20.90;83.30
51661;DHT22;37741;49.748;8.490;2023-08-17T06:16:29;20.90;83.20
51661;DHT22;37741;49.748;8.490;2023-08-17T06:18:55;20.80;83.20
51661;DHT22;37741;49.748;8.490;2023-08-17T06:21:21;20.80;83.30
51661;DHT22;37741;49.748;8.490;2023-08-17T06:23:49;20.90;83.40
51661;DHT22;37741;49.748;8.490;2023-08-17T06:26:18;20.80;83.30
51661;DHT22;37741;49.748;8.490;2023-08-17T06:28:46;20.80;83.30
51661;DHT22;37741;49.748;8.490;2023-08-17T06:31:15;20.80;83.60
51661;DHT22;37741;49.748;8.490;2023-08-17T06:33:46;20.80;83.60
51661;DHT22;37741;49.748;8.490;2023-08-17T06:36:12;20.80;83.50
51661;DHT22;37741;49.748;8.490;2023-08-17T06:38:41;20.80;83.50
51661;DHT22;37741;49.748;8.490;2023-08-17T06:41:08;20.80;83.40
51661;DHT22;37741;49.748;8.490;2023-08-17T06:43:33;20.80;83.50
51661;DHT22;37741;49.748;8.490;2023-08-17T06:45:59;20.80;83.40
51661;DHT22;37741;49.748;8.490;2023-08-17T06:48:26;20.80;83.70
51661;DHT22;37741;49.748;8.490;2023-08-17T06:50:51;20.80;83.50
51661;DHT22;37741;49.748;8.490;2023-08-17T06:53:17;20.80;83.40
51661;DHT22;37741;49.748;8.490;2023-08-17T06:55:43;20.80;83.40
51661;DHT22;37741;49.748;8.490;2023-08-17T06:58:08;20.80;83.40
51661;DHT22;37741;49.748;8.490;2023-08-17T07:00:34;20.80;83.40
51661;DHT22;37741;49.748;8.490;2023-08-17T07:03:01;20.80;83.40
51661;DHT22;37741;49.748;8.490;2023-08-17T07:05:26;20.80;83.40
51661;DHT22;37741;49.748;8.490;2023-08-17T07:07:52;20.80;83.30
51661;DHT22;37741;49.748;8.490;2023-08-17T07:10:22;20.80;83.30
51661;DHT22;37741;49.748;8.490;2023-08-17T07:12:48;20.90;83.30
51661;DHT22;37741;49.748;8.490;2023-08-17T07:15:14;20.90;83.50
51661;DHT22;37741;49.748;8.490;2023-08-17T07:17:40;20.90;83.40
51661;DHT22;37741;49.748;8.490;2023-08-17T07:20:06;20.90;84.00
51661;DHT22;37741;49.748;8.490;2023-08-17T07:22:33;20.90;83.30
51661;DHT22;37741;49.748;8.490;2023-08-17T07:24:58;20.90;83.40
51661;DHT22;37741;49.748;8.490;2023-08-17T07:27:25;20.90;83.40
51661;DHT22;37741;49.748;8.490;2023-08-17T07:29:52;20.90;83.50
51661;DHT22;37741;49.748;8.490;2023-08-17T07:32:18;20.90;83.50
51661;DHT22;37741;49.748;8.490;2023-08-17T07:34:44;20.90;83.50
51661;DHT22;37741;49.748;8.490;2023-08-17T07:37:10;21.00;83.40
51661;DHT22;37741;49.748;8.490;2023-08-17T07:39:35;21.00;83.30
51661;DHT22;37741;49.748;8.490;2023-08-17T07:42:01;21.00;83.50
51661;DHT22;37741;49.748;8.490;2023-08-17T07:44:27;21.10;83.20
51661;DHT22;37741;49.748;8.490;2023-08-17T07:46:57;21.10;83.10
51661;DHT22;37741;49.748;8.490;2023-08-17T07:49:23;21.20;82.90
51661;DHT22;37741;49.748;8.490;2023-08-17T07:51:49;21.20;82.80
51661;DHT22;37741;49.748;8.490;2023-08-17T07:54:18;21.20;82.60
51661;DHT22;37741;49.748;8.490;2023-08-17T07:56:43;21.30;82.90
51661;DHT22;37741;49.748;8.490;2023-08-17T07:59:12;21.30;82.60
51661;DHT22;37741;49.748;8.490;2023-08-17T08:01:37;21.30;83.50
51661;DHT22;37741;49.748;8.490;2023-08-17T08:04:05;21.30;82.60
51661;DHT22;37741;49.748;8.490;2023-08-17T08:06:32;21.40;82.60
51661;DHT22;37741;49.748;8.490;2023-08-17T08:08:57;21.40;82.50
51661;DHT22;37741;49.748;8.490;2023-08-17T08:11:23;21.40;82.60
51661;DHT22;37741;49.748;8.490;2023-08-17T08:13:49;21.50;82.30
51661;DHT22;37741;49.748;8.490;2023-08-17T08:16:14;21.50;82.00
51661;DHT22;37741;49.748;8.490;2023-08-17T08:18:40;21.50;81.90
51661;DHT22;37741;49.748;8.490;2023-08-17T08:21:06;21.50;82.20
51661;DHT22;37741;49.748;8.490;2023-08-17T08:23:31;21.50;82.00
51661;DHT22;37741;49.748;8.490;2023-08-17T08:25:57;21.50;81.90
51661;DHT22;37741;49.748;8.490;2023-08-17T08:28:23;21.50;81.80
51661;DHT22;37741;49.748;8.490;2023-08-17T08:30:49;21.60;82.20
51661;DHT22;37741;49.748;8.490;2023-08-17T08:33:15;21.60;81.90
51661;DHT22;37741;49.748;8.490;2023-08-17T08:35:41;21.60;82.40
51661;DHT22;37741;49.748;8.490;2023-08-17T08:38:06;21.60;81.70
51661;DHT22;37741;49.748;8.490;2023-08-17T08:40:32;21.60;82.40
51661;DHT22;37741;49.748;8.490;2023-08-17T08:42:58;21.60;81.80
51661;DHT22;37741;49.748;8.490;2023-08-17T08:45:25;21.60;81.80
51661;DHT22;37741;49.748;8.490;2023-08-17T08:47:53;21.60;81.80
51661;DHT22;37741;49.748;8.490;2023-08-17T08:50:23;21.60;82.00
51661;DHT22;37741;49.748;8.490;2023-08-17T08:52:59;21.60;81.90
51661;DHT22;37741;49.748;8.490;2023-08-17T08:55:29;21.60;82.00
51661;DHT22;37741;49.748;8.490;2023-08-17T08:57:56;21.60;82.50
51661;DHT22;37741;49.748;8.490;2023-08-17T09:00:22;21.70;82.40
51661;DHT22;37741;49.748;8.490;2023-08-17T09:02:50;21.70;82.10
51661;DHT22;37741;49.748;8.490;2023-08-17T09:05:17;21.70;82.10
51661;DHT22;37741;49.748;8.490;2023-08-17T09:07:43;21.70;82.10
51661;DHT22;37741;49.748;8.490;2023-08-17T09:10:10;21.70;82.40
51661;DHT22;37741;49.748;8.490;2023-08-17T09:12:36;21.80;82.40
51661;DHT22;37741;49.748;8.490;2023-08-17T09:15:04;21.80;82.00
51661;DHT22;37741;49.748;8.490;2023-08-17T09:17:32;21.80;82.00
51661;DHT22;37741;49.748;8.490;2023-08-17T09:19:59;21.80;82.00
51661;DHT22;37741;49.748;8.490;2023-08-17T09:25:01;21.80;82.40
51661;DHT22;37741;49.748;8.490;2023-08-17T09:27:27;21.90;81.70
51661;DHT22;37741;49.748;8.490;2023-08-17T09:30:00;21.90;81.70
51661;DHT22;37741;49.748;8.490;2023-08-17T09:32:30;21.90;81.60
51661;DHT22;37741;49.748;8.490;2023-08-17T09:34:56;22.00;81.60
51661;DHT22;37741;49.748;8.490;2023-08-17T09:37:26;22.00;81.80
51661;DHT22;37741;49.748;8.490;2023-08-17T09:39:52;22.10;82.30
51661;DHT22;37741;49.748;8.490;2023-08-17T09:42:18;22.00;81.70
51661;DHT22;37741;49.748;8.490;2023-08-17T09:44:44;22.10;82.40
51661;DHT22;37741;49.748;8.490;2023-08-17T09:47:11;22.10;82.00
51661;DHT22;37741;49.748;8.490;2023-08-17T09:49:36;22.20;81.60
51661;DHT22;37741;49.748;8.490;2023-08-17T09:52:04;22.20;81.90
51661;DHT22;37741;49.748;8.490;2023-08-17T09:54:31;22.20;81.30
51661;DHT22;37741;49.748;8.490;2023-08-17T09:57:00;22.30;81.40
51661;DHT22;37741;49.748;8.490;2023-08-17T09:59:29;22.30;81.40
51661;DHT22;37741;49.748;8.490;2023-08-17T10:01:56;22.40;81.50
51661;DHT22;37741;49.748;8.490;2023-08-17T10:04:24;22.40;81.20
51661;DHT22;37741;49.748;8.490;2023-08-17T10:06:58;22.40;82.00
51661;DHT22;37741;49.748;8.490;2023-08-17T10:09:25;22.50;81.30
51661;DHT22;37741;49.748;8.490;2023-08-17T10:11:57;22.50;81.20
51661;DHT22;37741;49.748;8.490;2023-08-17T10:14:28;22.60;81.00
51661;DHT22;37741;49.748;8.490;2023-08-17T10:17:07;22.60;80.10
51661;DHT22;37741;49.748;8.490;2023-08-17T10:19:48;22.60;81.10
51661;DHT22;37741;49.748;8.490;2023-08-17T10:22:43;22.70;81.10
51661;DHT22;37741;49.748;8.490;2023-08-17T10:25:14;22.70;81.00
51661;DHT22;37741;49.748;8.490;2023-08-17T10:27:44;22.70;81.10
51661;DHT22;37741;49.748;8.490;2023-08-17T10:30:11;22.80;81.50
51661;DHT22;37741;49.748;8.490;2023-08-17T10:32:40;22.90;81.30
51661;DHT22;37741;49.748;8.490;2023-08-17T10:35:10;22.90;81.00
51661;DHT22;37741;49.748;8.490;2023-08-17T10:37:37;23.00;80.80
51661;DHT22;37741;49.748;8.490;2023-08-17T10:40:04;23.10;80.90
51661;DHT22;37741;49.748;8.490;2023-08-17T10:42:31;23.10;80.50
51661;DHT22;37741;49.748;8.490;2023-08-17T10:45:00;23.20;80.40
51661;DHT22;37741;49.748;8.490;2023-08-17T10:47:32;23.30;80.30
51661;DHT22;37741;49.748;8.490;2023-08-17T10:49:59;23.30;80.00
51661;DHT22;37741;49.748;8.490;2023-08-17T10:52:31;23.40;80.10
51661;DHT22;37741;49.748;8.490;2023-08-17T10:55:02;23.50;79.70
51661;DHT22;37741;49.748;8.490;2023-08-17T10:57:32;23.40;79.50
51661;DHT22;37741;49.748;8.490;2023-08-17T11:02:37;23.50;79.30
51661;DHT22;37741;49.748;8.490;2023-08-17T11:05:03;23.60;79.60
51661;DHT22;37741;49.748;8.490;2023-08-17T11:07:43;23.60;79.60
51661;DHT22;37741;49.748;8.490;2023-08-17T11:12:44;23.70;79.10
51661;DHT22;37741;49.748;8.490;2023-08-17T11:15:10;23.70;79.00
51661;DHT22;37741;49.748;8.490;2023-08-17T11:17:36;23.70;78.70
51661;DHT22;37741;49.748;8.490;2023-08-17T11:20:02;23.70;78.70
51661;DHT22;37741;49.748;8.490;2023-08-17T11:22:29;23.70;78.60
51661;DHT22;37741;49.748;8.490;2023-08-17T11:24:54;23.80;78.80
51661;DHT22;37741;49.748;8.490;2023-08-17T11:27:21;23.70;78.60
51661;DHT22;37741;49.748;8.490;2023-08-17T11:29:49;23.80;78.60
51661;DHT22;37741;49.748;8.490;2023-08-17T11:32:18;23.80;78.60
51661;DHT22;37741;49.748;8.490;2023-08-17T11:34:44;23.70;78.40
51661;DHT22;37741;49.748;8.490;2023-08-17T11:37:13;23.80;78.30
51661;DHT22;37741;49.748;8.490;2023-08-17T11:39:39;23.80;78.10
51661;DHT22;37741;49.748;8.490;2023-08-17T11:42:05;23.80;77.90
51661;DHT22;37741;49.748;8.490;2023-08-17T11:44:31;23.80;77.60
51661;DHT22;37741;49.748;8.490;2023-08-17T11:46:57;23.80;77.40
51661;DHT22;37741;49.748;8.490;2023-08-17T11:49:23;23.80;77.60
51661;DHT22;37741;49.748;8.490;2023-08-17T11:51:51;23.80;77.40
51661;DHT22;37741;49.748;8.490;2023-08-17T11:54:16;23.80;77.30
51661;DHT22;37741;49.748;8.490;2023-08-17T11:56:42;23.80;77.90
51661;DHT22;37741;49.748;8.490;2023-08-17T11:59:09;23.80;77.90
51661;DHT22;37741;49.748;8.490;2023-08-17T12:01:39;23.80;77.90
51661;DHT22;37741;49.748;8.490;2023-08-17T12:04:06;23.80;77.70
51661;DHT22;37741;49.748;8.490;2023-08-17T12:06:32;23.90;78.20
51661;DHT22;37741;49.748;8.490;2023-08-17T12:08:58;23.90;77.80
51661;DHT22;37741;49.748;8.490;2023-08-17T12:11:24;23.90;78.10
51661;DHT22;37741;49.748;8.490;2023-08-17T12:13:51;24.00;77.40
51661;DHT22;37741;49.748;8.490;2023-08-17T12:16:20;24.00;77.50
51661;DHT22;37741;49.748;8.490;2023-08-17T12:18:52;24.00;78.90
51661;DHT22;37741;49.748;8.490;2023-08-17T12:21:23;24.10;78.10
51661;DHT22;37741;49.748;8.490;2023-08-17T12:23:49;24.10;77.80
51661;DHT22;37741;49.748;8.490;2023-08-17T12:26:21;24.10;77.80
51661;DHT22;37741;49.748;8.490;2023-08-17T12:28:47;24.10;78.10
51661;DHT22;37741;49.748;8.490;2023-08-17T12:31:12;24.10;78.00
51661;DHT22;37741;49.748;8.490;2023-08-17T12:33:38;24.10;78.50
51661;DHT22;37741;49.748;8.490;2023-08-17T12:36:03;24.20;78.60
51661;DHT22;37741;49.748;8.490;2023-08-17T12:38:29;24.20;78.80
51661;DHT22;37741;49.748;8.490;2023-08-17T12:40:55;24.20;78.80
51661;DHT22;37741;49.748;8.490;2023-08-17T12:43:21;24.30;78.80
51661;DHT22;37741;49.748;8.490;2023-08-17T12:45:46;24.30;78.80
51661;DHT22;37741;49.748;8.490;2023-08-17T12:48:12;24.40;78.90
51661;DHT22;37741;49.748;8.490;2023-08-17T12:50:38;24.50;78.50
51661;DHT22;37741;49.748;8.490;2023-08-17T12:53:03;24.50;78.90
51661;DHT22;37741;49.748;8.490;2023-08-17T12:55:29;24.60;78.10
51661;DHT22;37741;49.748;8.490;2023-08-17T12:57:55;24.60;77.50
51661;DHT22;37741;49.748;8.490;2023-08-17T13:00:20;24.70;77.30
51661;DHT22;37741;49.748;8.490;2023-08-17T13:02:46;24.70;77.20
51661;DHT22;37741;49.748;8.490;2023-08-17T13:05:14;24.80;77.10
51661;DHT22;37741;49.748;8.490;2023-08-17T13:07:40;24.80;77.00
51661;DHT22;37741;49.748;8.490;2023-08-17T13:10:05;24.80;77.30
51661;DHT22;37741;49.748;8.490;2023-08-17T13:12:31;24.80;77.80
51661;DHT22;37741;49.748;8.490;2023-08-17T13:14:58;24.80;77.00
51661;DHT22;37741;49.748;8.490;2023-08-17T13:17:23;24.80;76.90
51661;DHT22;37741;49.748;8.490;2023-08-17T13:19:49;24.90;77.40
51661;DHT22;37741;49.748;8.490;2023-08-17T13:22:15;24.90;76.90
51661;DHT22;37741;49.748;8.490;2023-08-17T13:24:42;25.00;76.70
51661;DHT22;37741;49.748;8.490;2023-08-17T13:27:08;24.90;76.50
51661;DHT22;37741;49.748;8.490;2023-08-17T13:29:34;25.00;76.40
51661;DHT22;37741;49.748;8.490;2023-08-17T13:32:01;25.10;76.30
51661;DHT22;37741;49.748;8.490;2023-08-17T13:34:26;25.10;76.10
51661;DHT22;37741;49.748;8.490;2023-08-17T13:36:52;25.10;76.00
51661;DHT22;37741;49.748;8.490;2023-08-17T13:39:17;25.20;75.80
51661;DHT22;37741;49.748;8.490;2023-08-17T13:41:43;25.20;75.50
51661;DHT22;37741;49.748;8.490;2023-08-17T13:44:08;25.30;75.50
51661;DHT22;37741;49.748;8.490;2023-08-17T13:46:34;25.30;75.30
51661;DHT22;37741;49.748;8.490;2023-08-17T13:49:00;25.40;75.20
51661;DHT22;37741;49.748;8.490;2023-08-17T13:51:28;25.40;75.20
51661;DHT22;37741;49.748;8.490;2023-08-17T13:53:53;25.50;75.30
51661;DHT22;37741;49.748;8.490;2023-08-17T13:56:19;25.50;75.00
51661;DHT22;37741;49.748;8.490;2023-08-17T13:58:45;25.50;75.70
51661;DHT22;37741;49.748;8.490;2023-08-17T14:01:10;25.60;74.90
51661;DHT22;37741;49.748;8.490;2023-08-17T14:03:37;25.70;74.70
51661;DHT22;37741;49.748;8.490;2023-08-17T14:06:02;25.70;74.50
51661;DHT22;37741;49.748;8.490;2023-08-17T14:08:28;25.70;74.40
51661;DHT22;37741;49.748;8.490;2023-08-17T14:10:54;25.80;74.30
51661;DHT22;37741;49.748;8.490;2023-08-17T14:13:19;25.80;74.00
51661;DHT22;37741;49.748;8.490;2023-08-17T14:15:54;25.90;73.90
51661;DHT22;37741;49.748;8.490;2023-08-17T14:18:27;25.90;73.80
51661;DHT22;37741;49.748;8.490;2023-08-17T14:20:55;26.00;73.00
51661;DHT22;37741;49.748;8.490;2023-08-17T14:23:20;26.00;72.40
51661;DHT22;37741;49.748;8.490;2023-08-17T14:25:46;26.10;72.20
51661;DHT22;37741;49.748;8.490;2023-08-17T14:28:12;26.10;72.00
51661;DHT22;37741;49.748;8.490;2023-08-17T14:30:37;26.10;72.20
51661;DHT22;37741;49.748;8.490;2023-08-17T14:33:03;26.10;72.00
51661;DHT22;37741;49.748;8.490;2023-08-17T14:35:29;26.20;72.20
51661;DHT22;37741;49.748;8.490;2023-08-17T14:37:55;26.20;72.30
51661;DHT22;37741;49.748;8.490;2023-08-17T14:40:23;26.20;72.50
51661;DHT22;37741;49.748;8.490;2023-08-17T14:42:49;26.20;72.50
51661;DHT22;37741;49.748;8.490;2023-08-17T14:45:14;26.20;73.50
51661;DHT22;37741;49.748;8.490;2023-08-17T14:47:40;26.20;72.60
51661;DHT22;37741;49.748;8.490;2023-08-17T14:50:06;26.20;72.50
51661;DHT22;37741;49.748;8.490;2023-08-17T14:52:31;26.30;72.60
51661;DHT22;37741;49.748;8.490;2023-08-17T14:54:57;26.30;73.10
51661;DHT22;37741;49.748;8.490;2023-08-17T14:57:23;26.30;73.00
51661;DHT22;37741;49.748;8.490;2023-08-17T14:59:48;26.40;72.60
51661;DHT22;37741;49.748;8.490;2023-08-17T15:02:14;26.40;72.30
51661;DHT22;37741;49.748;8.490;2023-08-17T15:04:41;26.50;72.00
51661;DHT22;37741;49.748;8.490;2023-08-17T15:07:07;26.50;71.80
51661;DHT22;37741;49.748;8.490;2023-08-17T15:09:39;26.60;71.60
51661;DHT22;37741;49.748;8.490;2023-08-17T15:12:07;26.60;71.50
51661;DHT22;37741;49.748;8.490;2023-08-17T15:14:33;26.60;71.10
51661;DHT22;37741;49.748;8.490;2023-08-17T15:16:58;26.70;71.20
51661;DHT22;37741;49.748;8.490;2023-08-17T15:19:25;26.70;71.00
51661;DHT22;37741;49.748;8.490;2023-08-17T15:21:51;26.80;70.80
51661;DHT22;37741;49.748;8.490;2023-08-17T15:24:16;26.80;70.80
51661;DHT22;37741;49.748;8.490;2023-08-17T15:26:43;26.90;70.90
51661;DHT22;37741;49.748;8.490;2023-08-17T15:29:09;26.90;70.70
51661;DHT22;37741;49.748;8.490;2023-08-17T15:31:34;27.00;70.20
51661;DHT22;37741;49.748;8.490;2023-08-17T15:34:00;27.10;70.20
51661;DHT22;37741;49.748;8.490;2023-08-17T15:36:25;27.10;70.00